sensor_id;sensor_type;location;lat;lon;timestamp;P1;durP1;ratioP1;P2;durP2;ratioP2
71715;SDS011;59568;52.128;5.434;2022-10-16T00:01:27;4.65;;;0.88;;
71715;SDS011;59568;52.128;5.434;2022-10-16T00:03:57;3.47;;;0.90;;
71715;SDS011;59568;52.128;5.434;2022-10-16T00:06:25;2.20;;;0.70;;
71715;SDS011;59568;52.128;5.434;2022-10-16T00:08:54;4.45;;;0.88;;
71715;SDS011;59568;52.128;5.434;2022-10-16T00:11:27;6.13;;;1.00;;
71715;SDS011;59568;52.128;5.434;2022-10-16T00:13:57;2.80;;;0.93;;
71715;SDS011;59568;52.128;5.434;2022-10-16T00:16:26;3.00;;;0.83;;
71715;SDS011;59568;52.128;5.434;2022-10-16T00:18:54;2.90;;;0.80;;
71715;SDS011;59568;52.128;5.434;2022-10-16T00:21:23;4.05;;;0.90;;
71715;SDS011;59568;52.128;5.434;2022-10-16T00:23:53;7.63;;;1.38;;
71715;SDS011;59568;52.128;5.434;2022-10-16T00:26:22;3.95;;;1.20;;
71715;SDS011;59568;52.128;5.434;2022-10-16T00:28:50;4.30;;;0.80;;
71715;SDS011;59568;52.128;5.434;2022-10-16T00:31:18;3.13;;;0.98;;
71715;SDS011;59568;52.128;5.434;2022-10-16T00:33:47;4.82;;;1.15;;
71715;SDS011;59568;52.128;5.434;2022-10-16T00:36:16;4.45;;;1.00;;
71715;SDS011;59568;52.128;5.434;2022-10-16T00:38:45;2.85;;;1.00;;
71715;SDS011;59568;52.128;5.434;2022-10-16T00:41:14;5.30;;;1.23;;
71715;SDS011;59568;52.128;5.434;2022-10-16T00:43:44;4.13;;;1.58;;
71715;SDS011;59568;52.128;5.434;2022-10-16T00:46:21;4.75;;;1.20;;
71715;SDS011;59568;52.128;5.434;2022-10-16T00:51:21;3.90;;;1.23;;
71715;SDS011;59568;52.128;5.434;2022-10-16T00:53:52;4.53;;;1.33;;
71715;SDS011;59568;52.128;5.434;2022-10-16T00:56:19;4.07;;;1.15;;
71715;SDS011;59568;52.128;5.434;2022-10-16T00:58:46;2.95;;;1.25;;
71715;SDS011;59568;52.128;5.434;2022-10-16T01:01:13;6.68;;;1.60;;
71715;SDS011;59568;52.128;5.434;2022-10-16T01:03:40;4.88;;;1.83;;
71715;SDS011;59568;52.128;5.434;2022-10-16T01:06:09;4.13;;;1.43;;
71715;SDS011;59568;52.128;5.434;2022-10-16T01:08:56;6.65;;;1.70;;
71715;SDS011;59568;52.128;5.434;2022-10-16T01:17:18;6.15;;;1.60;;
71715;SDS011;59568;52.128;5.434;2022-10-16T01:23:02;8.23;;;2.03;;
71715;SDS011;59568;52.128;5.434;2022-10-16T01:28:54;5.28;;;2.05;;
71715;SDS011;59568;52.128;5.434;2022-10-16T01:31:42;3.92;;;2.03;;
71715;SDS011;59568;52.128;5.434;2022-10-16T01:34:15;4.13;;;1.83;;
71715;SDS011;59568;52.128;5.434;2022-10-16T01:36:52;4.65;;;1.85;;
71715;SDS011;59568;52.128;5.434;2022-10-16T01:39:24;5.32;;;2.00;;
71715;SDS011;59568;52.128;5.434;2022-10-16T01:42:01;5.00;;;1.60;;
71715;SDS011;59568;52.128;5.434;2022-10-16T01:44:33;2.67;;;1.58;;
71715;SDS011;59568;52.128;5.434;2022-10-16T01:47:03;3.57;;;1.43;;
71715;SDS011;59568;52.128;5.434;2022-10-16T01:49:31;6.50;;;2.88;;
71715;SDS011;59568;52.128;5.434;2022-10-16T01:52:02;7.95;;;1.85;;
71715;SDS011;59568;52.128;5.434;2022-10-16T01:54:41;6.70;;;2.03;;
71715;SDS011;59568;52.128;5.434;2022-10-16T01:57:10;3.88;;;1.67;;
71715;SDS011;59568;52.128;5.434;2022-10-16T01:59:42;3.63;;;2.00;;
71715;SDS011;59568;52.128;5.434;2022-10-16T02:02:13;4.00;;;1.40;;
71715;SDS011;59568;52.128;5.434;2022-10-16T02:04:44;4.10;;;1.75;;
71715;SDS011;59568;52.128;5.434;2022-10-16T02:07:15;3.38;;;1.38;;
71715;SDS011;59568;52.128;5.434;2022-10-16T02:09:45;3.83;;;1.48;;
71715;SDS011;59568;52.128;5.434;2022-10-16T02:12:20;4.33;;;1.47;;
71715;SDS011;59568;52.128;5.434;2022-10-16T02:14:54;3.97;;;1.55;;
71715;SDS011;59568;52.128;5.434;2022-10-16T02:17:22;2.70;;;1.02;;
71715;SDS011;59568;52.128;5.434;2022-10-16T02:19:50;4.38;;;1.25;;
71715;SDS011;59568;52.128;5.434;2022-10-16T02:22:21;4.45;;;1.60;;
71715;SDS011;59568;52.128;5.434;2022-10-16T02:27:23;6.80;;;1.92;;
71715;SDS011;59568;52.128;5.434;2022-10-16T02:29:59;2.85;;;1.42;;
71715;SDS011;59568;52.128;5.434;2022-10-16T02:32:34;3.50;;;1.17;;
71715;SDS011;59568;52.128;5.434;2022-10-16T02:35:04;2.75;;;1.10;;
71715;SDS011;59568;52.128;5.434;2022-10-16T02:37:33;4.63;;;1.27;;
71715;SDS011;59568;52.128;5.434;2022-10-16T02:40:02;3.03;;;1.23;;
71715;SDS011;59568;52.128;5.434;2022-10-16T02:42:35;3.35;;;1.45;;
71715;SDS011;59568;52.128;5.434;2022-10-16T02:45:07;3.05;;;1.38;;
71715;SDS011;59568;52.128;5.434;2022-10-16T02:47:35;3.83;;;1.75;;
71715;SDS011;59568;52.128;5.434;2022-10-16T02:50:03;4.47;;;1.80;;
71715;SDS011;59568;52.128;5.434;2022-10-16T02:52:30;6.47;;;1.85;;
71715;SDS011;59568;52.128;5.434;2022-10-16T02:54:57;4.05;;;1.77;;
71715;SDS011;59568;52.128;5.434;2022-10-16T02:57:24;3.42;;;1.42;;
71715;SDS011;59568;52.128;5.434;2022-10-16T02:59:51;4.40;;;1.83;;
71715;SDS011;59568;52.128;5.434;2022-10-16T03:02:18;3.37;;;1.73;;
71715;SDS011;59568;52.128;5.434;2022-10-16T03:04:45;4.72;;;2.00;;
71715;SDS011;59568;52.128;5.434;2022-10-16T03:07:12;5.43;;;1.63;;
71715;SDS011;59568;52.128;5.434;2022-10-16T03:09:39;3.10;;;1.83;;
71715;SDS011;59568;52.128;5.434;2022-10-16T03:12:06;4.57;;;1.52;;
71715;SDS011;59568;52.128;5.434;2022-10-16T03:14:33;4.53;;;1.40;;
71715;SDS011;59568;52.128;5.434;2022-10-16T03:17:00;4.15;;;1.60;;
71715;SDS011;59568;52.128;5.434;2022-10-16T03:19:27;3.17;;;1.20;;
71715;SDS011;59568;52.128;5.434;2022-10-16T03:21:54;3.15;;;1.30;;
71715;SDS011;59568;52.128;5.434;2022-10-16T03:24:21;2.35;;;1.20;;
71715;SDS011;59568;52.128;5.434;2022-10-16T03:26:48;4.40;;;1.60;;
71715;SDS011;59568;52.128;5.434;2022-10-16T03:29:15;2.97;;;1.35;;
71715;SDS011;59568;52.128;5.434;2022-10-16T03:31:41;4.47;;;1.60;;
71715;SDS011;59568;52.128;5.434;2022-10-16T03:34:09;3.92;;;1.45;;
71715;SDS011;59568;52.128;5.434;2022-10-16T03:36:36;5.20;;;1.65;;
71715;SDS011;59568;52.128;5.434;2022-10-16T03:39:03;8.73;;;1.87;;
71715;SDS011;59568;52.128;5.434;2022-10-16T03:41:30;3.88;;;1.40;;
71715;SDS011;59568;52.128;5.434;2022-10-16T03:43:57;6.57;;;1.60;;
71715;SDS011;59568;52.128;5.434;2022-10-16T03:46:23;3.78;;;1.52;;
71715;SDS011;59568;52.128;5.434;2022-10-16T03:48:50;3.78;;;1.65;;
71715;SDS011;59568;52.128;5.434;2022-10-16T03:51:17;5.50;;;2.10;;
71715;SDS011;59568;52.128;5.434;2022-10-16T03:53:44;2.58;;;1.40;;
71715;SDS011;59568;52.128;5.434;2022-10-16T03:56:11;3.53;;;1.27;;
71715;SDS011;59568;52.128;5.434;2022-10-16T03:58:38;5.07;;;1.70;;
71715;SDS011;59568;52.128;5.434;2022-10-16T04:01:05;2.85;;;1.30;;
71715;SDS011;59568;52.128;5.434;2022-10-16T04:03:32;2.70;;;1.00;;
71715;SDS011;59568;52.128;5.434;2022-10-16T04:05:59;3.47;;;1.27;;
71715;SDS011;59568;52.128;5.434;2022-10-16T04:08:26;2.92;;;1.40;;
71715;SDS011;59568;52.128;5.434;2022-10-16T04:10:53;2.90;;;1.08;;
71715;SDS011;59568;52.128;5.434;2022-10-16T04:13:19;2.47;;;1.00;;
71715;SDS011;59568;52.128;5.434;2022-10-16T04:15:46;3.27;;;1.03;;
71715;SDS011;59568;52.128;5.434;2022-10-16T04:18:13;2.85;;;0.95;;
71715;SDS011;59568;52.128;5.434;2022-10-16T04:20:40;2.13;;;1.10;;
71715;SDS011;59568;52.128;5.434;2022-10-16T04:23:07;2.28;;;1.10;;
71715;SDS011;59568;52.128;5.434;2022-10-16T04:25:34;2.72;;;1.00;;
71715;SDS011;59568;52.128;5.434;2022-10-16T04:28:01;1.90;;;0.90;;
71715;SDS011;59568;52.128;5.434;2022-10-16T04:30:28;4.30;;;0.93;;
71715;SDS011;59568;52.128;5.434;2022-10-16T04:32:55;2.55;;;1.27;;
71715;SDS011;59568;52.128;5.434;2022-10-16T04:35:22;5.40;;;1.00;;
71715;SDS011;59568;52.128;5.434;2022-10-16T04:37:49;3.28;;;1.02;;
71715;SDS011;59568;52.128;5.434;2022-10-16T04:40:16;2.00;;;0.90;;
71715;SDS011;59568;52.128;5.434;2022-10-16T04:42:43;3.13;;;1.00;;
71715;SDS011;59568;52.128;5.434;2022-10-16T04:45:10;2.20;;;0.70;;
71715;SDS011;59568;52.128;5.434;2022-10-16T04:47:42;1.95;;;0.70;;
71715;SDS011;59568;52.128;5.434;2022-10-16T04:50:09;2.90;;;1.17;;
71715;SDS011;59568;52.128;5.434;2022-10-16T04:52:36;2.03;;;1.07;;
71715;SDS011;59568;52.128;5.434;2022-10-16T04:55:03;3.30;;;0.95;;
71715;SDS011;59568;52.128;5.434;2022-10-16T04:57:30;3.35;;;0.90;;
71715;SDS011;59568;52.128;5.434;2022-10-16T04:59:57;2.13;;;0.90;;
71715;SDS011;59568;52.128;5.434;2022-10-16T05:02:24;2.95;;;1.00;;
71715;SDS011;59568;52.128;5.434;2022-10-16T05:04:51;3.03;;;1.30;;
71715;SDS011;59568;52.128;5.434;2022-10-16T05:07:18;4.60;;;1.55;;
71715;SDS011;59568;52.128;5.434;2022-10-16T05:09:45;1.77;;;1.23;;
71715;SDS011;59568;52.128;5.434;2022-10-16T05:12:12;3.80;;;1.20;;
71715;SDS011;59568;52.128;5.434;2022-10-16T05:14:39;3.45;;;1.00;;
71715;SDS011;59568;52.128;5.434;2022-10-16T05:17:07;3.10;;;0.90;;
71715;SDS011;59568;52.128;5.434;2022-10-16T05:19:33;3.88;;;1.10;;
71715;SDS011;59568;52.128;5.434;2022-10-16T05:22:01;2.42;;;0.90;;
71715;SDS011;59568;52.128;5.434;2022-10-16T05:24:28;4.43;;;0.98;;
71715;SDS011;59568;52.128;5.434;2022-10-16T05:26:54;1.90;;;1.02;;
71715;SDS011;59568;52.128;5.434;2022-10-16T05:29:21;3.23;;;1.00;;
71715;SDS011;59568;52.128;5.434;2022-10-16T05:31:52;2.53;;;0.98;;
71715;SDS011;59568;52.128;5.434;2022-10-16T05:34:19;5.00;;;1.15;;
71715;SDS011;59568;52.128;5.434;2022-10-16T05:36:47;3.20;;;1.30;;
71715;SDS011;59568;52.128;5.434;2022-10-16T05:39:14;2.90;;;1.10;;
71715;SDS011;59568;52.128;5.434;2022-10-16T05:41:42;3.07;;;0.83;;
71715;SDS011;59568;52.128;5.434;2022-10-16T05:44:09;2.38;;;0.90;;
71715;SDS011;59568;52.128;5.434;2022-10-16T05:46:37;2.75;;;1.05;;
71715;SDS011;59568;52.128;5.434;2022-10-16T05:49:04;1.63;;;0.80;;
71715;SDS011;59568;52.128;5.434;2022-10-16T05:51:31;5.75;;;1.00;;
71715;SDS011;59568;52.128;5.434;2022-10-16T05:53:58;2.33;;;0.83;;
71715;SDS011;59568;52.128;5.434;2022-10-16T05:56:25;2.53;;;1.35;;
71715;SDS011;59568;52.128;5.434;2022-10-16T05:58:52;3.72;;;1.13;;
71715;SDS011;59568;52.128;5.434;2022-10-16T06:01:19;2.45;;;0.70;;
71715;SDS011;59568;52.128;5.434;2022-10-16T06:03:51;1.98;;;1.00;;
71715;SDS011;59568;52.128;5.434;2022-10-16T06:06:19;7.40;;;1.60;;
71715;SDS011;59568;52.128;5.434;2022-10-16T06:08:48;4.15;;;0.98;;
71715;SDS011;59568;52.128;5.434;2022-10-16T06:11:20;3.17;;;1.20;;
71715;SDS011;59568;52.128;5.434;2022-10-16T06:13:49;1.70;;;0.73;;
71715;SDS011;59568;52.128;5.434;2022-10-16T06:16:17;3.88;;;1.13;;
71715;SDS011;59568;52.128;5.434;2022-10-16T06:18:44;2.13;;;0.87;;
71715;SDS011;59568;52.128;5.434;2022-10-16T06:21:15;3.13;;;1.08;;
71715;SDS011;59568;52.128;5.434;2022-10-16T06:23:45;5.28;;;0.82;;
71715;SDS011;59568;52.128;5.434;2022-10-16T06:26:17;4.78;;;1.10;;
71715;SDS011;59568;52.128;5.434;2022-10-16T06:28:46;3.17;;;0.82;;
71715;SDS011;59568;52.128;5.434;2022-10-16T06:31:13;1.70;;;0.87;;
71715;SDS011;59568;52.128;5.434;2022-10-16T06:33:41;2.70;;;0.93;;
71715;SDS011;59568;52.128;5.434;2022-10-16T06:36:09;3.20;;;0.90;;
71715;SDS011;59568;52.128;5.434;2022-10-16T06:38:38;2.40;;;0.85;;
71715;SDS011;59568;52.128;5.434;2022-10-16T06:41:06;2.33;;;0.95;;
71715;SDS011;59568;52.128;5.434;2022-10-16T06:43:33;3.20;;;1.00;;
71715;SDS011;59568;52.128;5.434;2022-10-16T06:46:04;2.83;;;0.80;;
71715;SDS011;59568;52.128;5.434;2022-10-16T06:48:32;2.75;;;1.02;;
71715;SDS011;59568;52.128;5.434;2022-10-16T06:51:03;4.38;;;1.17;;
71715;SDS011;59568;52.128;5.434;2022-10-16T06:53:40;2.38;;;0.82;;
71715;SDS011;59568;52.128;5.434;2022-10-16T06:56:28;4.33;;;1.00;;
71715;SDS011;59568;52.128;5.434;2022-10-16T06:58:57;2.70;;;1.20;;
71715;SDS011;59568;52.128;5.434;2022-10-16T07:01:25;3.38;;;1.00;;
71715;SDS011;59568;52.128;5.434;2022-10-16T07:03:52;3.05;;;0.88;;
71715;SDS011;59568;52.128;5.434;2022-10-16T07:06:21;3.38;;;1.40;;
71715;SDS011;59568;52.128;5.434;2022-10-16T07:08:50;1.37;;;0.60;;
71715;SDS011;59568;52.128;5.434;2022-10-16T07:11:18;3.42;;;1.00;;
71715;SDS011;59568;52.128;5.434;2022-10-16T07:13:47;5.32;;;1.00;;
71715;SDS011;59568;52.128;5.434;2022-10-16T07:16:21;3.55;;;0.80;;
71715;SDS011;59568;52.128;5.434;2022-10-16T07:18:50;3.35;;;0.95;;
71715;SDS011;59568;52.128;5.434;2022-10-16T07:21:21;3.73;;;1.17;;
71715;SDS011;59568;52.128;5.434;2022-10-16T07:23:52;2.30;;;0.88;;
71715;SDS011;59568;52.128;5.434;2022-10-16T07:26:21;2.47;;;0.80;;
71715;SDS011;59568;52.128;5.434;2022-10-16T07:28:49;4.32;;;0.93;;
71715;SDS011;59568;52.128;5.434;2022-10-16T07:31:17;3.67;;;0.88;;
71715;SDS011;59568;52.128;5.434;2022-10-16T07:33:45;5.97;;;1.10;;
71715;SDS011;59568;52.128;5.434;2022-10-16T07:36:15;2.75;;;0.90;;
71715;SDS011;59568;52.128;5.434;2022-10-16T07:38:44;2.25;;;0.60;;
71715;SDS011;59568;52.128;5.434;2022-10-16T07:41:15;2.05;;;0.70;;
71715;SDS011;59568;52.128;5.434;2022-10-16T07:43:51;2.40;;;0.52;;
71715;SDS011;59568;52.128;5.434;2022-10-16T07:46:19;4.90;;;0.90;;
71715;SDS011;59568;52.128;5.434;2022-10-16T07:48:47;2.40;;;0.70;;
71715;SDS011;59568;52.128;5.434;2022-10-16T07:51:16;2.60;;;0.80;;
71715;SDS011;59568;52.128;5.434;2022-10-16T07:53:47;3.78;;;0.93;;
71715;SDS011;59568;52.128;5.434;2022-10-16T07:56:14;2.72;;;0.90;;
71715;SDS011;59568;52.128;5.434;2022-10-16T07:58:42;4.40;;;0.80;;
71715;SDS011;59568;52.128;5.434;2022-10-16T08:01:11;4.82;;;1.00;;
71715;SDS011;59568;52.128;5.434;2022-10-16T08:03:43;2.15;;;0.82;;
71715;SDS011;59568;52.128;5.434;2022-10-16T08:06:11;3.97;;;1.00;;
71715;SDS011;59568;52.128;5.434;2022-10-16T08:08:39;2.75;;;0.90;;
71715;SDS011;59568;52.128;5.434;2022-10-16T08:11:06;3.20;;;0.97;;
71715;SDS011;59568;52.128;5.434;2022-10-16T08:13:34;3.75;;;1.30;;
71715;SDS011;59568;52.128;5.434;2022-10-16T08:16:01;3.67;;;1.00;;
71715;SDS011;59568;52.128;5.434;2022-10-16T08:18:34;2.90;;;1.20;;
71715;SDS011;59568;52.128;5.434;2022-10-16T08:21:06;3.58;;;1.23;;
71715;SDS011;59568;52.128;5.434;2022-10-16T08:23:34;3.83;;;0.83;;
71715;SDS011;59568;52.128;5.434;2022-10-16T08:26:02;3.10;;;1.17;;
71715;SDS011;59568;52.128;5.434;2022-10-16T08:28:32;2.83;;;0.98;;
71715;SDS011;59568;52.128;5.434;2022-10-16T08:31:06;5.80;;;1.10;;
71715;SDS011;59568;52.128;5.434;2022-10-16T08:33:33;2.92;;;0.98;;
71715;SDS011;59568;52.128;5.434;2022-10-16T08:36:02;4.23;;;0.87;;
71715;SDS011;59568;52.128;5.434;2022-10-16T08:38:30;1.73;;;0.70;;
71715;SDS011;59568;52.128;5.434;2022-10-16T08:41:07;2.50;;;0.98;;
71715;SDS011;59568;52.128;5.434;2022-10-16T08:43:40;3.53;;;1.23;;
71715;SDS011;59568;52.128;5.434;2022-10-16T08:49:01;6.73;;;1.27;;
71715;SDS011;59568;52.128;5.434;2022-10-16T08:51:30;4.82;;;0.90;;
71715;SDS011;59568;52.128;5.434;2022-10-16T08:56:46;6.03;;;0.80;;
71715;SDS011;59568;52.128;5.434;2022-10-16T08:59:13;4.55;;;0.75;;
71715;SDS011;59568;52.128;5.434;2022-10-16T09:01:46;5.43;;;0.80;;
71715;SDS011;59568;52.128;5.434;2022-10-16T09:06:56;4.88;;;1.00;;
71715;SDS011;59568;52.128;5.434;2022-10-16T09:09:43;4.40;;;0.60;;
71715;SDS011;59568;52.128;5.434;2022-10-16T09:12:39;5.93;;;0.88;;
71715;SDS011;59568;52.128;5.434;2022-10-16T09:15:27;5.10;;;0.87;;
71715;SDS011;59568;52.128;5.434;2022-10-16T09:18:11;5.45;;;0.68;;
71715;SDS011;59568;52.128;5.434;2022-10-16T09:20:53;2.58;;;0.70;;
71715;SDS011;59568;52.128;5.434;2022-10-16T09:23:32;6.10;;;1.08;;
71715;SDS011;59568;52.128;5.434;2022-10-16T09:26:02;4.63;;;0.80;;
71715;SDS011;59568;52.128;5.434;2022-10-16T09:28:30;4.00;;;1.10;;
71715;SDS011;59568;52.128;5.434;2022-10-16T09:30:57;3.42;;;1.02;;
71715;SDS011;59568;52.128;5.434;2022-10-16T09:33:25;4.97;;;0.90;;
71715;SDS011;59568;52.128;5.434;2022-10-16T09:35:57;6.55;;;0.90;;
71715;SDS011;59568;52.128;5.434;2022-10-16T09:38:26;10.13;;;0.88;;
71715;SDS011;59568;52.128;5.434;2022-10-16T09:41:01;4.13;;;0.80;;
71715;SDS011;59568;52.128;5.434;2022-10-16T09:46:35;4.25;;;0.77;;
71715;SDS011;59568;52.128;5.434;2022-10-16T09:49:05;4.18;;;0.75;;
71715;SDS011;59568;52.128;5.434;2022-10-16T09:51:47;3.15;;;0.93;;
71715;SDS011;59568;52.128;5.434;2022-10-16T09:54:15;5.67;;;1.13;;
71715;SDS011;59568;52.128;5.434;2022-10-16T09:56:47;5.95;;;0.77;;
71715;SDS011;59568;52.128;5.434;2022-10-16T09:59:21;6.22;;;0.50;;
71715;SDS011;59568;52.128;5.434;2022-10-16T10:01:53;4.70;;;0.80;;
71715;SDS011;59568;52.128;5.434;2022-10-16T10:04:22;4.47;;;0.57;;
71715;SDS011;59568;52.128;5.434;2022-10-16T10:06:55;3.67;;;0.43;;
71715;SDS011;59568;52.128;5.434;2022-10-16T10:12:04;6.65;;;0.70;;
71715;SDS011;59568;52.128;5.434;2022-10-16T10:14:43;7.57;;;0.63;;
71715;SDS011;59568;52.128;5.434;2022-10-16T10:17:15;5.55;;;0.60;;
71715;SDS011;59568;52.128;5.434;2022-10-16T10:22:18;6.57;;;0.68;;
71715;SDS011;59568;52.128;5.434;2022-10-16T10:30:57;5.43;;;0.73;;
71715;SDS011;59568;52.128;5.434;2022-10-16T10:33:42;6.20;;;0.77;;
71715;SDS011;59568;52.128;5.434;2022-10-16T10:39:15;8.32;;;0.68;;
71715;SDS011;59568;52.128;5.434;2022-10-16T10:47:38;6.90;;;0.57;;
71715;SDS011;59568;52.128;5.434;2022-10-16T11:07:24;5.57;;;0.80;;
71715;SDS011;59568;52.128;5.434;2022-10-16T11:10:03;5.53;;;0.63;;
71715;SDS011;59568;52.128;5.434;2022-10-16T11:12:39;5.50;;;0.47;;
71715;SDS011;59568;52.128;5.434;2022-10-16T11:15:15;4.23;;;0.70;;
71715;SDS011;59568;52.128;5.434;2022-10-16T11:17:51;7.43;;;0.55;;
71715;SDS011;59568;52.128;5.434;2022-10-16T11:20:25;5.57;;;0.70;;
71715;SDS011;59568;52.128;5.434;2022-10-16T11:22:58;6.25;;;0.50;;
71715;SDS011;59568;52.128;5.434;2022-10-16T11:25:34;4.68;;;0.80;;
71715;SDS011;59568;52.128;5.434;2022-10-16T11:31:19;6.85;;;0.55;;
71715;SDS011;59568;52.128;5.434;2022-10-16T11:39:11;6.45;;;0.77;;
71715;SDS011;59568;52.128;5.434;2022-10-16T11:44:45;7.63;;;0.68;;
71715;SDS011;59568;52.128;5.434;2022-10-16T11:47:34;7.93;;;0.50;;
71715;SDS011;59568;52.128;5.434;2022-10-16T11:50:28;6.53;;;0.68;;
71715;SDS011;59568;52.128;5.434;2022-10-16T11:53:03;6.60;;;0.80;;
71715;SDS011;59568;52.128;5.434;2022-10-16T11:55:49;5.17;;;0.70;;
71715;SDS011;59568;52.128;5.434;2022-10-16T12:04:27;4.95;;;0.65;;
71715;SDS011;59568;52.128;5.434;2022-10-16T12:09:15;6.33;;;0.53;;
71715;SDS011;59568;52.128;5.434;2022-10-16T12:11:49;5.80;;;0.45;;
71715;SDS011;59568;52.128;5.434;2022-10-16T12:16:59;6.00;;;0.57;;
71715;SDS011;59568;52.128;5.434;2022-10-16T12:19:30;8.85;;;0.70;;
71715;SDS011;59568;52.128;5.434;2022-10-16T12:21:59;3.97;;;0.40;;
71715;SDS011;59568;52.128;5.434;2022-10-16T12:24:32;5.38;;;0.43;;
71715;SDS011;59568;52.128;5.434;2022-10-16T12:27:04;5.05;;;0.50;;
71715;SDS011;59568;52.128;5.434;2022-10-16T12:29:41;6.80;;;1.08;;
71715;SDS011;59568;52.128;5.434;2022-10-16T12:32:26;4.38;;;0.60;;
71715;SDS011;59568;52.128;5.434;2022-10-16T12:35:22;5.43;;;0.93;;
71715;SDS011;59568;52.128;5.434;2022-10-16T12:37:53;4.50;;;0.60;;
71715;SDS011;59568;52.128;5.434;2022-10-16T12:42:57;6.68;;;0.45;;
71715;SDS011;59568;52.128;5.434;2022-10-16T12:45:32;6.50;;;0.47;;
71715;SDS011;59568;52.128;5.434;2022-10-16T12:48:01;3.63;;;0.43;;
71715;SDS011;59568;52.128;5.434;2022-10-16T12:50:38;5.30;;;0.55;;
71715;SDS011;59568;52.128;5.434;2022-10-16T12:53:22;4.72;;;0.68;;
71715;SDS011;59568;52.128;5.434;2022-10-16T13:01:55;8.10;;;0.60;;
71715;SDS011;59568;52.128;5.434;2022-10-16T13:05:09;6.93;;;0.40;;
71715;SDS011;59568;52.128;5.434;2022-10-16T13:13:59;4.93;;;0.40;;
71715;SDS011;59568;52.128;5.434;2022-10-16T13:20:12;7.97;;;0.40;;
71715;SDS011;59568;52.128;5.434;2022-10-16T13:28:03;5.88;;;0.50;;
71715;SDS011;59568;52.128;5.434;2022-10-16T13:30:52;2.73;;;0.40;;
71715;SDS011;59568;52.128;5.434;2022-10-16T13:33:27;4.50;;;0.45;;
71715;SDS011;59568;52.128;5.434;2022-10-16T13:36:04;8.07;;;0.70;;
71715;SDS011;59568;52.128;5.434;2022-10-16T13:38:32;3.25;;;0.40;;
71715;SDS011;59568;52.128;5.434;2022-10-16T13:41:03;5.40;;;0.52;;
71715;SDS011;59568;52.128;5.434;2022-10-16T13:43:34;10.57;;;3.37;;
71715;SDS011;59568;52.128;5.434;2022-10-16T13:46:11;6.40;;;0.80;;
71715;SDS011;59568;52.128;5.434;2022-10-16T13:48:41;4.35;;;0.63;;
71715;SDS011;59568;52.128;5.434;2022-10-16T13:51:16;4.93;;;0.50;;
71715;SDS011;59568;52.128;5.434;2022-10-16T13:53:45;4.07;;;0.50;;
71715;SDS011;59568;52.128;5.434;2022-10-16T13:56:17;5.13;;;0.40;;
71715;SDS011;59568;52.128;5.434;2022-10-16T13:58:46;5.35;;;0.63;;
71715;SDS011;59568;52.128;5.434;2022-10-16T14:01:27;3.42;;;0.47;;
71715;SDS011;59568;52.128;5.434;2022-10-16T14:04:02;5.10;;;0.50;;
71715;SDS011;59568;52.128;5.434;2022-10-16T14:06:32;7.95;;;0.60;;
71715;SDS011;59568;52.128;5.434;2022-10-16T14:09:04;5.37;;;0.50;;
71715;SDS011;59568;52.128;5.434;2022-10-16T14:11:42;4.72;;;0.60;;
71715;SDS011;59568;52.128;5.434;2022-10-16T14:14:13;8.10;;;0.65;;
71715;SDS011;59568;52.128;5.434;2022-10-16T14:16:42;8.98;;;0.60;;
71715;SDS011;59568;52.128;5.434;2022-10-16T14:19:31;7.65;;;0.85;;
71715;SDS011;59568;52.128;5.434;2022-10-16T14:21:58;4.83;;;0.63;;
71715;SDS011;59568;52.128;5.434;2022-10-16T14:24:31;3.35;;;0.40;;
71715;SDS011;59568;52.128;5.434;2022-10-16T14:27:00;10.30;;;0.50;;
71715;SDS011;59568;52.128;5.434;2022-10-16T14:29:29;6.18;;;0.65;;
71715;SDS011;59568;52.128;5.434;2022-10-16T14:32:03;5.28;;;0.57;;
71715;SDS011;59568;52.128;5.434;2022-10-16T14:34:32;6.90;;;0.40;;
71715;SDS011;59568;52.128;5.434;2022-10-16T14:37:23;6.47;;;0.98;;
71715;SDS011;59568;52.128;5.434;2022-10-16T14:39:53;3.65;;;0.40;;
71715;SDS011;59568;52.128;5.434;2022-10-16T14:42:23;3.63;;;0.30;;
71715;SDS011;59568;52.128;5.434;2022-10-16T14:44:51;5.55;;;0.50;;
71715;SDS011;59568;52.128;5.434;2022-10-16T14:47:21;6.87;;;0.77;;
71715;SDS011;59568;52.128;5.434;2022-10-16T14:49:53;4.78;;;0.57;;
71715;SDS011;59568;52.128;5.434;2022-10-16T14:52:22;5.82;;;0.43;;
71715;SDS011;59568;52.128;5.434;2022-10-16T14:54:49;4.47;;;0.70;;
71715;SDS011;59568;52.128;5.434;2022-10-16T14:57:21;6.43;;;0.70;;
71715;SDS011;59568;52.128;5.434;2022-10-16T14:59:51;5.17;;;0.30;;
71715;SDS011;59568;52.128;5.434;2022-10-16T15:02:23;8.35;;;0.60;;
71715;SDS011;59568;52.128;5.434;2022-10-16T15:04:55;5.25;;;0.40;;
71715;SDS011;59568;52.128;5.434;2022-10-16T15:07:22;4.53;;;0.40;;
71715;SDS011;59568;52.128;5.434;2022-10-16T15:09:51;6.45;;;0.75;;
71715;SDS011;59568;52.128;5.434;2022-10-16T15:12:18;10.63;;;0.50;;
71715;SDS011;59568;52.128;5.434;2022-10-16T15:14:45;5.13;;;0.52;;
71715;SDS011;59568;52.128;5.434;2022-10-16T15:17:12;7.90;;;0.70;;
71715;SDS011;59568;52.128;5.434;2022-10-16T15:19:41;9.18;;;1.00;;
71715;SDS011;59568;52.128;5.434;2022-10-16T15:22:09;9.48;;;0.93;;
71715;SDS011;59568;52.128;5.434;2022-10-16T15:24:37;4.30;;;0.70;;
71715;SDS011;59568;52.128;5.434;2022-10-16T15:27:05;6.82;;;0.60;;
71715;SDS011;59568;52.128;5.434;2022-10-16T15:29:31;7.13;;;0.77;;
71715;SDS011;59568;52.128;5.434;2022-10-16T15:31:58;4.40;;;0.40;;
71715;SDS011;59568;52.128;5.434;2022-10-16T15:34:25;6.43;;;0.82;;
71715;SDS011;59568;52.128;5.434;2022-10-16T15:36:52;6.33;;;0.87;;
71715;SDS011;59568;52.128;5.434;2022-10-16T15:39:21;3.67;;;0.30;;
71715;SDS011;59568;52.128;5.434;2022-10-16T15:41:48;7.18;;;0.50;;
71715;SDS011;59568;52.128;5.434;2022-10-16T15:44:17;6.07;;;0.60;;
71715;SDS011;59568;52.128;5.434;2022-10-16T15:46:45;3.78;;;0.57;;
71715;SDS011;59568;52.128;5.434;2022-10-16T15:49:13;4.60;;;0.60;;
71715;SDS011;59568;52.128;5.434;2022-10-16T15:51:40;8.05;;;0.80;;
71715;SDS011;59568;52.128;5.434;2022-10-16T15:54:08;6.00;;;0.80;;
71715;SDS011;59568;52.128;5.434;2022-10-16T15:56:35;7.30;;;0.50;;
71715;SDS011;59568;52.128;5.434;2022-10-16T15:59:04;7.25;;;0.65;;
71715;SDS011;59568;52.128;5.434;2022-10-16T16:01:35;4.00;;;0.50;;
71715;SDS011;59568;52.128;5.434;2022-10-16T16:04:02;7.90;;;0.82;;
71715;SDS011;59568;52.128;5.434;2022-10-16T16:06:46;7.22;;;1.13;;
71715;SDS011;59568;52.128;5.434;2022-10-16T16:09:13;7.25;;;0.63;;
71715;SDS011;59568;52.128;5.434;2022-10-16T16:11:41;6.75;;;1.00;;
71715;SDS011;59568;52.128;5.434;2022-10-16T16:14:12;7.07;;;0.97;;
71715;SDS011;59568;52.128;5.434;2022-10-16T16:16:40;10.25;;;1.52;;
71715;SDS011;59568;52.128;5.434;2022-10-16T16:19:07;9.45;;;2.25;;
71715;SDS011;59568;52.128;5.434;2022-10-16T16:21:37;7.78;;;1.67;;
71715;SDS011;59568;52.128;5.434;2022-10-16T16:24:04;7.20;;;1.98;;
71715;SDS011;59568;52.128;5.434;2022-10-16T16:26:35;7.47;;;1.13;;
71715;SDS011;59568;52.128;5.434;2022-10-16T16:29:06;9.48;;;1.35;;
71715;SDS011;59568;52.128;5.434;2022-10-16T16:31:33;5.72;;;0.80;;
71715;SDS011;59568;52.128;5.434;2022-10-16T16:34:01;6.90;;;1.30;;
71715;SDS011;59568;52.128;5.434;2022-10-16T16:36:28;5.38;;;2.38;;
71715;SDS011;59568;52.128;5.434;2022-10-16T16:38:56;5.03;;;2.23;;
71715;SDS011;59568;52.128;5.434;2022-10-16T16:41:25;9.05;;;3.20;;
71715;SDS011;59568;52.128;5.434;2022-10-16T16:43:54;6.97;;;2.08;;
71715;SDS011;59568;52.128;5.434;2022-10-16T16:46:21;11.35;;;5.20;;
71715;SDS011;59568;52.128;5.434;2022-10-16T16:48:48;9.77;;;4.97;;
71715;SDS011;59568;52.128;5.434;2022-10-16T16:51:21;15.47;;;8.57;;
71715;SDS011;59568;52.128;5.434;2022-10-16T16:53:49;15.27;;;9.27;;
71715;SDS011;59568;52.128;5.434;2022-10-16T16:56:18;25.17;;;14.35;;
71715;SDS011;59568;52.128;5.434;2022-10-16T16:58:47;21.60;;;13.52;;
71715;SDS011;59568;52.128;5.434;2022-10-16T17:01:15;20.70;;;12.27;;